Roatan, Honduras
Current Conditions -  °F | °C
As of 4:00 AM on Monday 20 Oct 2014 (Local Time) from MHLC Reporting Station
Overcast Overcast  
Wind Chill: 73°   Ceiling: 8000
Heat Index: 73°   Visibility: 6mi
Dew Point: 73°   Wind: 3mph
Humidity: 100%   Direction: 70°ENE
Pressure: 29.83"   Gusts: NA
Location:  16.33°N, 86.52°W
Report Text: MHLC 201000Z 07003KT 9999 SCT028 OVC080 23/23 Q1010 A2984NOSIG
Loading
Personal Weather Stations






























Interactive Weather Map New forecast layout! Learn more

10-Day Weather Forecast

Advertisements
Track Severe Weather on mobile